Time;durP1;ratioP1;P1;durP2;ratioP2;P2;SDS_P1;SDS_P2;PMS_P1;PMS_P2;Temp;Humidity;BMP_temperature;BMP_pressure;BME280_temperature;BME280_humidity;BME280_pressure;Samples;Min_cycle;Max_cycle;Signal;HPM_P1;HPM_P2
2022/11/16 00:01:03;;;;;;;;;3.00;2.50;;;;;13.24;69.32;98322.66;5136727;27;8956;-58
2022/11/16 00:03:31;;;;;;;;;1.00;1.00;;;;;13.23;69.17;98330.84;5136819;27;8829;-59
2022/11/16 00:05:59;;;;;;;;;3.75;3.00;;;;;13.20;69.07;98323.22;5137333;27;8852;-59
2022/11/16 00:08:27;;;;;;;;;4.00;4.00;;;;;13.18;69.59;98325.19;5136654;27;8821;-58
2022/11/16 00:10:55;;;;;;;;;3.00;3.00;;;;;13.16;70.00;98328.06;5136891;27;8809;-58
2022/11/16 00:13:22;;;;;;;;;2.50;2.50;;;;;13.13;69.54;98323.06;5137320;27;8829;-58
2022/11/16 00:15:50;;;;;;;;;3.25;3.25;;;;;13.11;69.15;98319.75;5137684;27;8796;-58
2022/11/16 00:18:18;;;;;;;;;4.00;3.50;;;;;13.09;69.24;98321.78;5138174;27;8857;-58
2022/11/16 00:20:46;;;;;;;;;2.00;1.50;;;;;13.07;69.53;98306.91;5138277;27;9514;-58
2022/11/16 00:23:14;;;;;;;;;3.50;3.00;;;;;13.03;69.64;98305.59;5144306;27;8837;-59
2022/11/16 00:25:42;;;;;;;;;3.50;3.25;;;;;13.01;69.86;98312.97;5158892;27;8827;-59
2022/11/16 00:28:10;;;;;;;;;3.50;3.00;;;;;12.97;69.79;98304.47;5146306;27;8814;-58
2022/11/16 00:30:38;;;;;;;;;6.75;5.50;;;;;12.95;70.09;98303.81;5138134;27;9512;-58
2022/11/16 00:33:06;;;;;;;;;3.50;3.50;;;;;12.92;69.44;98300.66;5136708;27;8840;-58
2022/11/16 00:35:33;;;;;;;;;3.00;3.00;;;;;12.90;70.39;98300.00;5137865;27;9430;-58
2022/11/16 00:38:03;;;;;;;;;3.00;3.00;;;;;12.86;70.30;98296.84;5137165;27;8818;-58
2022/11/16 00:40:30;;;;;;;;;4.00;4.00;;;;;12.85;70.30;98299.69;5137503;27;8833;-59
2022/11/16 00:42:58;;;;;;;;;4.00;3.75;;;;;12.81;70.45;98288.53;5137699;27;9479;-58
2022/11/16 00:45:26;;;;;;;;;6.00;3.50;;;;;12.78;70.58;98290.72;5137451;27;8848;-58
2022/11/16 00:47:54;;;;;;;;;3.00;3.00;;;;;12.76;70.71;98298.06;5137190;27;8813;-59
2022/11/16 00:50:30;;;;;;;;;6.00;6.00;;;;;12.74;70.43;98284.03;5137479;27;8968;-58
2022/11/16 00:52:57;;;;;;;;;3.50;3.50;;;;;12.73;70.69;98290.41;5136811;27;8824;-58
2022/11/16 00:55:25;;;;;;;;;4.00;4.00;;;;;12.70;70.98;98288.91;5137227;27;8817;-58
2022/11/16 00:57:53;;;;;;;;;6.00;6.00;;;;;12.68;70.21;98292.78;5137243;27;9515;-58
2022/11/16 01:00:21;;;;;;;;;7.00;4.50;;;;;12.66;71.04;98286.75;5137287;27;8855;-58
2022/11/16 01:02:48;;;;;;;;;0.50;0.50;;;;;12.64;70.40;98289.63;5137140;27;9492;-58
2022/11/16 01:05:16;;;;;;;;;1.50;1.50;;;;;12.62;71.20;98283.59;5137605;27;8868;-58
2022/11/16 01:07:44;;;;;;;;;1.00;1.00;;;;;12.60;71.32;98287.50;5136974;27;8850;-58
2022/11/16 01:10:11;;;;;;;;;1.50;1.50;;;;;12.58;71.23;98282.31;5136916;27;8804;-59
2022/11/16 01:12:38;;;;;;;;;2.00;2.00;;;;;12.55;71.00;98279.16;5137180;27;8814;-56
2022/11/16 01:15:07;;;;;;;;;5.00;5.00;;;;;12.52;71.31;98283.00;5137445;27;8818;-58
2022/11/16 01:17:35;;;;;;;;;0.75;0.75;;;;;12.51;71.49;98288.50;5137146;27;8814;-58
2022/11/16 01:20:03;;;;;;;;;6.00;5.00;;;;;12.49;71.16;98282.53;5137664;27;8809;-59
2022/11/16 01:22:30;;;;;;;;;2.00;2.00;;;;;12.48;71.22;98273.69;5137505;27;8860;-58
2022/11/16 01:24:58;;;;;;;;;4.75;3.50;;;;;12.47;71.60;98271.19;5136775;27;8886;-58
2022/11/16 01:27:26;;;;;;;;;3.00;3.00;;;;;12.47;71.56;98268.53;5136223;27;8799;-59
2022/11/16 01:29:54;;;;;;;;;3.25;3.00;;;;;12.45;71.82;98266.03;5136747;27;8836;-58
2022/11/16 01:32:22;;;;;;;;;3.00;3.00;;;;;12.46;71.04;98264.19;5136735;27;8836;-58
2022/11/16 01:34:50;;;;;;;;;6.00;6.00;;;;;12.47;71.35;98257.84;5137123;27;8825;-58
2022/11/16 01:37:17;;;;;;;;;4.00;4.00;;;;;12.46;71.81;98264.19;5136504;27;8898;-58
2022/11/16 01:39:47;;;;;;;;;7.50;6.00;;;;;12.47;71.93;98249.84;5136189;27;8894;-58
2022/11/16 01:42:14;;;;;;;;;6.75;6.00;;;;;12.48;71.23;98254.16;5136365;27;8798;-58
2022/11/16 01:44:42;;;;;;;;;6.25;6.00;;;;;12.48;71.45;98248.81;5141825;27;8818;-58
2022/11/16 01:47:10;;;;;;;;;6.00;4.00;;;;;12.46;71.68;98248.19;5143274;27;8902;-58
2022/11/16 01:49:37;;;;;;;;;6.00;6.00;;;;;12.45;71.56;98249.19;5143593;27;8840;-58
2022/11/16 01:52:06;;;;;;;;;1.00;0.50;;;;;12.43;71.32;98243.16;5143125;27;8821;-58
2022/11/16 01:54:34;;;;;;;;;3.75;3.00;;;;;12.43;71.83;98245.84;5161274;27;8818;-58
2022/11/16 01:57:02;;;;;;;;;10.00;9.75;;;;;12.42;71.75;98242.34;5143196;27;9519;-59
2022/11/16 01:59:30;;;;;;;;;4.50;3.00;;;;;12.41;71.89;98239.84;5143364;27;8809;-58
2022/11/16 02:01:57;;;;;;;;;6.25;6.25;;;;;12.41;71.75;98240.69;5143212;27;8887;-58
2022/11/16 02:04:26;;;;;;;;;5.00;5.00;;;;;12.41;71.77;98229.19;5143176;27;8798;-58
2022/11/16 02:06:54;;;;;;;;;6.00;5.50;;;;;12.40;71.56;98230.19;5143292;27;8814;-58
2022/11/16 02:12:07;;;;;;;;;7.50;6.50;;;;;12.39;71.91;98226.66;5143263;27;8813;-58
2022/11/16 02:14:40;;;;;;;;;5.00;5.00;;;;;12.38;72.13;98225.00;5143125;27;8836;-62
2022/11/16 02:17:07;;;;;;;;;4.50;4.50;;;;;12.40;71.90;98230.19;5143200;27;8842;-58
2022/11/16 02:19:35;;;;;;;;;1.00;1.00;;;;;12.38;71.66;98218.84;5143388;27;8807;-58
2022/11/16 02:22:03;;;;;;;;;3.25;3.00;;;;;12.38;72.25;98213.53;5143556;27;8842;-58
2022/11/16 02:24:31;;;;;;;;;2.00;2.00;;;;;12.39;72.15;98212.50;5160473;27;8811;-58
2022/11/16 02:26:58;;;;;;;;;4.00;4.00;;;;;12.38;72.32;98210.84;5164066;27;8811;-58
2022/11/16 02:29:26;;;;;;;;;3.25;3.25;;;;;12.38;72.51;98213.53;5148006;27;8816;-57
2022/11/16 02:31:54;;;;;;;;;1.00;1.00;;;;;12.38;71.94;98208.19;5143182;27;8821;-56
2022/11/16 02:34:21;;;;;;;;;5.50;5.00;;;;;12.38;72.35;98203.66;5142990;27;8830;-57
2022/11/16 02:36:49;;;;;;;;;5.50;4.50;;;;;12.38;72.21;98205.50;5142728;27;8836;-58
2022/11/16 02:39:17;;;;;;;;;0.50;0.00;;;;;12.38;72.22;98205.50;5143241;27;8850;-58
2022/11/16 02:41:45;;;;;;;;;2.00;1.00;;;;;12.35;72.43;98205.84;5142645;27;8806;-58
2022/11/16 02:44:13;;;;;;;;;1.00;1.00;;;;;12.30;72.71;98195.69;5143048;27;8802;-58
2022/11/16 02:46:40;;;;;;;;;3.00;2.00;;;;;12.27;73.04;98197.88;5142859;27;8822;-57
2022/11/16 02:49:08;;;;;;;;;3.00;3.00;;;;;12.24;73.65;98206.25;5143162;27;8832;-58
2022/11/16 02:51:37;;;;;;;;;4.00;3.50;;;;;12.20;73.76;98207.59;5143262;27;8814;-58
2022/11/16 02:54:07;;;;;;;;;2.00;2.00;;;;;12.18;73.28;98206.94;5156436;27;8815;-58
2022/11/16 02:56:36;;;;;;;;;3.25;3.25;;;;;12.16;73.35;98206.28;5143853;27;8802;-58
2022/11/16 02:59:04;;;;;;;;;1.00;1.00;;;;;12.14;73.57;98210.94;5139323;27;8910;-58
2022/11/16 03:01:32;;;;;;;;;2.50;0.50;;;;;12.11;73.93;98206.81;5139133;27;8861;-58
2022/11/16 03:04:02;;;;;;;;;4.00;4.00;;;;;12.10;74.07;98204.31;5138940;27;8878;-58
2022/11/16 03:06:30;;;;;;;;;4.00;3.25;;;;;12.10;73.71;98209.66;5138418;27;8825;-58
2022/11/16 03:08:57;;;;;;;;;2.50;2.00;;;;;12.08;73.99;98217.81;5139405;27;8902;-58
2022/11/16 03:14:12;;;;;;;;;3.00;3.00;;;;;12.04;74.27;98211.19;5139139;27;8821;-58
2022/11/16 03:16:39;;;;;;;;;3.25;3.25;;;;;12.02;74.43;98210.50;5140178;27;8813;-58
2022/11/16 03:19:11;;;;;;;;;1.00;0.25;;;;;12.01;74.55;98210.69;5139835;27;8806;-58
2022/11/16 03:21:38;;;;;;;;;3.00;3.00;;;;;11.99;74.43;98210.88;5138888;27;8801;-58
2022/11/16 03:24:06;;;;;;;;;3.00;1.00;;;;;12.00;74.74;98219.72;5138722;27;8802;-58
2022/11/16 03:26:35;;;;;;;;;1.50;1.00;;;;;11.99;74.83;98223.34;5138974;27;9481;-58
2022/11/16 03:29:03;;;;;;;;;2.50;2.50;;;;;11.99;74.71;98223.34;5139095;27;8836;-58
2022/11/16 03:31:31;;;;;;;;;3.00;3.00;;;;;11.99;74.73;98220.69;5139159;27;8814;-58
2022/11/16 03:33:58;;;;;;;;;3.00;3.00;;;;;11.98;74.43;98214.53;5138911;27;9584;-58
2022/11/16 03:36:26;;;;;;;;;3.00;3.00;;;;;11.99;74.84;98218.03;5138779;27;8813;-58
2022/11/16 03:38:54;;;;;;;;;2.00;2.00;;;;;11.99;74.42;98218.88;5138901;27;8830;-58
2022/11/16 03:41:22;;;;;;;;;0.25;0.00;;;;;11.98;74.93;98202.22;5139089;27;8826;-58
2022/11/16 03:43:50;;;;;;;;;4.25;3.25;;;;;11.97;75.15;98204.03;5138944;27;8834;-58
2022/11/16 03:46:19;;;;;;;;;4.00;3.50;;;;;11.97;74.88;98206.69;5138670;27;8824;-57
2022/11/16 03:48:47;;;;;;;;;3.75;3.00;;;;;11.96;74.90;98202.38;5138115;27;8818;-57
2022/11/16 03:51:15;;;;;;;;;3.00;3.00;;;;;11.96;74.54;98197.03;5138187;27;8794;-58
2022/11/16 03:53:42;;;;;;;;;3.00;2.00;;;;;11.96;75.23;98202.38;5148524;27;9622;-58
2022/11/16 03:56:10;;;;;;;;;3.50;1.50;;;;;11.97;74.54;98197.88;5140777;27;8817;-57
2022/11/16 03:58:38;;;;;;;;;3.00;2.50;;;;;11.95;74.80;98193.53;5138029;27;8794;-57
2022/11/16 04:01:06;;;;;;;;;3.50;3.25;;;;;11.93;75.32;98174.22;5138407;27;8818;-57
2022/11/16 04:03:34;;;;;;;;;4.00;3.00;;;;;11.95;75.12;98174.03;5138301;27;8798;-58
2022/11/16 04:25:19;;;;;;;;;0.25;0.25;;;;;12.01;74.87;98210.69;5158896;27;9479;-58
2022/11/16 04:37:47;;;;;;;;;1.00;1.00;;;;;12.01;74.71;98216.84;5138011;27;8837;-58
2022/11/16 04:38:57;;;;;;;;;0.50;0.00;;;;;11.98;75.10;98207.56;5087201;28;8840;-57
2022/11/16 04:44:10;;;;;;;;;0.50;0.50;;;;;11.95;75.14;98196.19;5136341;27;8870;-57
2022/11/16 04:49:26;;;;;;;;;1.00;0.00;;;;;11.95;75.56;98206.06;5136765;27;8817;-57
2022/11/16 04:51:54;;;;;;;;;0.50;0.50;;;;;11.93;75.74;98210.75;5137034;27;8905;-57
2022/11/16 04:54:22;;;;;;;;;0.50;0.00;;;;;11.94;75.96;98220.41;5151474;27;8827;-58
2022/11/16 04:56:50;;;;;;;;;1.00;1.00;;;;;11.93;76.25;98209.91;5137477;27;8806;-58
2022/11/16 04:59:18;;;;;;;;;0.25;0.25;;;;;11.93;75.73;98207.22;5137207;27;8937;-58
2022/11/16 05:04:32;;;;;;;;;0.00;0.00;;;;;11.92;75.97;98214.41;5137380;27;8806;-58
2022/11/16 05:06:59;;;;;;;;;0.00;0.00;;;;;11.92;75.76;98221.56;5137610;27;8841;-57
2022/11/16 05:09:27;;;;;;;;;0.75;0.75;;;;;11.89;75.61;98222.75;5137135;27;8818;-57
2022/11/16 05:11:55;;;;;;;;;1.00;1.00;;;;;11.89;76.26;98224.59;5137593;27;8814;-58
2022/11/16 05:14:22;;;;;;;;;0.75;0.75;;;;;11.88;76.08;98223.75;5136925;27;8810;-58
2022/11/16 05:16:50;;;;;;;;;0.75;0.75;;;;;11.87;76.37;98222.09;5136819;27;9523;-57
2022/11/16 05:22:03;;;;;;;;;1.00;1.00;;;;;11.88;76.26;98214.91;5136302;27;8868;-58
2022/11/16 05:24:34;;;;;;;;;0.00;0.00;;;;;11.87;76.31;98218.59;5150275;27;8832;-57
2022/11/16 05:27:05;;;;;;;;;0.00;0.00;;;;;11.87;76.59;98219.41;5136529;27;8821;-58
2022/11/16 05:29:32;;;;;;;;;0.00;0.00;;;;;11.86;76.58;98217.75;5136363;27;8821;-57
2022/11/16 05:32:00;;;;;;;;;1.00;1.00;;;;;11.87;76.43;98222.09;5135320;27;8818;-57
2022/11/16 05:34:28;;;;;;;;;1.00;1.00;;;;;11.89;76.41;98230.75;5135076;27;8839;-57
2022/11/16 05:36:55;;;;;;;;;0.00;0.00;;;;;11.92;75.99;98233.09;5135508;27;8822;-58
2022/11/16 05:39:25;;;;;;;;;0.75;0.50;;;;;11.92;76.71;98238.41;5134872;27;8830;-57
2022/11/16 05:41:52;;;;;;;;;0.00;0.00;;;;;11.92;76.77;98235.75;5135332;27;8830;-57
2022/11/16 05:44:20;;;;;;;;;0.50;0.50;;;;;11.94;76.72;98241.75;5135074;27;8889;-58
2022/11/16 05:46:48;;;;;;;;;0.00;0.00;;;;;11.94;76.28;98236.41;5135316;27;8814;-58
2022/11/16 05:49:16;;;;;;;;;0.25;0.25;;;;;11.94;76.57;98241.75;5135449;27;8809;-58
2022/11/16 05:51:44;;;;;;;;;0.00;0.00;;;;;11.95;76.91;98238.88;5135329;27;8902;-58
2022/11/16 05:54:11;;;;;;;;;1.00;1.00;;;;;11.93;76.45;98236.56;5135290;27;9552;-57
2022/11/16 05:56:39;;;;;;;;;1.00;1.00;;;;;11.95;76.27;98246.06;5135015;27;8846;-57
2022/11/16 05:59:06;;;;;;;;;1.00;1.00;;;;;11.95;76.44;98246.88;5135434;27;8805;-58
2022/11/16 06:01:41;;;;;;;;;0.75;0.75;;;;;11.94;76.18;98242.56;5135166;27;8988;-58
2022/11/16 06:04:09;;;;;;;;;3.00;1.00;;;;;11.93;76.53;98240.91;5135859;27;8844;-58
2022/11/16 06:06:37;;;;;;;;;0.00;0.00;;;;;11.95;76.79;98244.22;5135897;27;8840;-58
2022/11/16 06:09:04;;;;;;;;;0.00;0.00;;;;;11.97;76.32;98252.06;5135286;27;8825;-56
2022/11/16 06:11:32;;;;;;;;;0.25;0.25;;;;;11.97;76.85;98254.72;5135149;27;8952;-58
2022/11/16 06:14:02;;;;;;;;;0.00;0.00;;;;;11.98;77.16;98263.56;5135235;27;8965;-58
2022/11/16 06:16:31;;;;;;;;;0.00;0.00;;;;;11.97;77.03;98267.25;5135303;27;8836;-58
2022/11/16 06:18:59;;;;;;;;;0.00;0.00;;;;;11.96;76.90;98266.41;5133852;27;8826;-58
2022/11/16 06:21:26;;;;;;;;;0.00;0.00;;;;;11.92;77.18;98275.75;5134858;27;8852;-57
2022/11/16 06:23:54;;;;;;;;;0.00;0.00;;;;;11.90;77.49;98280.41;5134695;27;9761;-57
2022/11/16 06:26:22;;;;;;;;;0.00;0.00;;;;;11.87;78.21;98277.25;5134552;27;8841;-58
2022/11/16 06:28:55;;;;;;;;;0.00;0.00;;;;;11.83;77.41;98287.44;5134330;27;8799;-58
2022/11/16 06:31:23;;;;;;;;;0.00;0.00;;;;;11.77;78.07;98282.81;5136451;27;8838;-58
2022/11/16 06:33:50;;;;;;;;;0.00;0.00;;;;;11.71;78.38;98282.63;5138595;27;8840;-57
2022/11/16 06:36:18;;;;;;;;;0.00;0.00;;;;;11.65;78.38;98293.97;5137786;27;8818;-57
2022/11/16 06:38:46;;;;;;;;;4.00;3.00;;;;;11.59;79.30;98284.81;5137459;27;9527;-58
2022/11/16 06:41:16;;;;;;;;;0.00;0.00;;;;;11.55;78.29;98295.97;5137452;27;8822;-58
2022/11/16 06:43:43;;;;;;;;;0.00;0.00;;;;;11.52;78.65;98307.78;5136956;27;8842;-58
2022/11/16 06:46:11;;;;;;;;;0.00;0.00;;;;;11.49;79.01;98300.13;5137050;27;8821;-58
2022/11/16 06:48:39;;;;;;;;;0.50;0.50;;;;;11.46;78.96;98315.63;5136995;27;9469;-58
2022/11/16 06:51:07;;;;;;;;;0.00;0.00;;;;;11.43;79.44;98308.78;5136902;27;8826;-58
2022/11/16 06:53:37;;;;;;;;;0.00;0.00;;;;;11.41;79.59;98313.47;5135916;27;8833;-58
2022/11/16 06:56:05;;;;;;;;;0.00;0.00;;;;;11.38;79.42;98311.13;5137703;27;8826;-58
2022/11/16 06:58:33;;;;;;;;;0.00;0.00;;;;;11.36;79.56;98310.47;5137089;27;8848;-55
2022/11/16 07:01:01;;;;;;;;;0.00;0.00;;;;;11.35;79.39;98308.81;5138055;27;8835;-58
2022/11/16 07:03:28;;;;;;;;;0.00;0.00;;;;;11.35;79.40;98319.47;5136746;27;8817;-58
2022/11/16 07:05:57;;;;;;;;;0.00;0.00;;;;;11.35;78.84;98316.78;5135930;27;8817;-58
2022/11/16 07:08:24;;;;;;;;;0.00;0.00;;;;;11.34;79.55;98327.63;5136103;27;8837;-58
2022/11/16 07:10:52;;;;;;;;;0.00;0.00;;;;;11.32;79.31;98319.81;5136158;27;8836;-58
2022/11/16 07:13:20;;;;;;;;;0.00;0.00;;;;;11.34;79.16;98328.47;5136007;27;8936;-58
2022/11/16 07:15:48;;;;;;;;;0.00;0.00;;;;;11.35;78.92;98327.44;5135641;27;9804;-58
2022/11/16 07:18:18;;;;;;;;;0.00;0.00;;;;;11.36;79.28;98330.97;5136281;27;9518;-58
2022/11/16 07:20:46;;;;;;;;;0.00;0.00;;;;;11.37;78.93;98332.63;5136270;27;9492;-58
2022/11/16 07:23:14;;;;;;;;;0.00;0.00;;;;;11.39;79.08;98342.09;5135910;27;8833;-58
2022/11/16 07:25:45;;;;;;;;;1.00;1.00;;;;;11.39;78.68;98336.75;5136518;27;8850;-58
2022/11/16 07:28:12;;;;;;;;;0.00;0.00;;;;;11.39;79.03;98335.94;5136182;27;8949;-58
2022/11/16 07:30:43;;;;;;;;;1.00;1.00;;;;;11.37;79.00;98344.09;5135598;27;9823;-58
2022/11/16 07:33:11;;;;;;;;;0.50;0.50;;;;;11.37;78.76;98357.44;5135915;27;8814;-56
2022/11/16 07:35:39;;;;;;;;;0.75;0.75;;;;;11.38;79.08;98361.75;5135631;27;8818;-58
2022/11/16 07:38:07;;;;;;;;;0.00;0.00;;;;;11.38;78.69;98366.28;5135952;27;8822;-58
2022/11/16 07:40:34;;;;;;;;;0.00;0.00;;;;;11.37;78.86;98356.63;5136027;27;9550;-58
2022/11/16 07:43:02;;;;;;;;;0.50;0.50;;;;;11.33;78.93;98361.44;5134903;27;8837;-58
2022/11/16 07:45:30;;;;;;;;;0.00;0.00;;;;;11.32;78.73;98366.94;5134268;27;8845;-58
2022/11/16 07:47:58;;;;;;;;;0.25;0.25;;;;;11.30;78.92;98369.75;5135377;27;8825;-58
2022/11/16 07:50:26;;;;;;;;;1.00;0.25;;;;;11.28;78.87;98377.06;5136964;27;8948;-58
2022/11/16 07:52:53;;;;;;;;;0.50;0.50;;;;;11.27;79.30;98383.41;5136549;27;8871;-58
2022/11/16 07:55:25;;;;;;;;;0.00;0.00;;;;;11.28;78.75;98382.41;5136172;27;8828;-58
2022/11/16 07:57:53;;;;;;;;;1.00;1.00;;;;;11.29;79.01;98391.25;5135621;27;8824;-57
2022/11/16 08:00:21;;;;;;;;;1.00;0.00;;;;;11.28;78.94;98387.75;5136152;27;8818;-57
2022/11/16 08:02:49;;;;;;;;;2.00;1.00;;;;;11.28;78.89;98386.88;5135308;27;8893;-58
2022/11/16 08:05:17;;;;;;;;;1.00;1.00;;;;;11.28;78.66;98395.72;5135062;27;8845;-56
2022/11/16 08:07:44;;;;;;;;;0.00;0.00;;;;;11.30;78.73;98387.59;5135251;27;8863;-58
2022/11/16 08:10:12;;;;;;;;;0.25;0.25;;;;;11.35;78.97;98394.09;5134762;27;8913;-56
2022/11/16 08:12:40;;;;;;;;;0.00;0.00;;;;;11.43;78.67;98386.09;5135676;27;8919;-59
2022/11/16 08:15:08;;;;;;;;;0.00;0.00;;;;;11.47;78.65;98387.44;5135998;27;8843;-57
2022/11/16 08:17:36;;;;;;;;;0.00;0.00;;;;;11.49;78.27;98390.75;5135199;27;8968;-59
2022/11/16 08:20:07;;;;;;;;;1.00;0.50;;;;;11.51;78.75;98401.28;5135564;27;8825;-56
2022/11/16 08:22:35;;;;;;;;;0.00;0.00;;;;;11.51;78.09;98391.44;5115614;27;8827;-58
2022/11/16 08:25:02;;;;;;;;;0.50;0.50;;;;;11.55;78.51;98398.09;5134903;27;8829;-58
2022/11/16 08:27:30;;;;;;;;;0.00;0.00;;;;;11.59;78.16;98401.31;5135358;27;8830;-57
2022/11/16 08:29:58;;;;;;;;;0.00;0.00;;;;;11.62;78.43;98400.97;5134742;27;8882;-57
2022/11/16 08:32:28;;;;;;;;;1.00;1.00;;;;;11.65;77.52;98412.13;5132843;27;8945;-57
2022/11/16 08:34:56;;;;;;;;;2.00;1.00;;;;;11.68;77.61;98410.97;5135628;27;8825;-58
2022/11/16 08:37:24;;;;;;;;;1.50;1.00;;;;;11.71;77.88;98414.13;5136184;27;8830;-57
2022/11/16 08:39:52;;;;;;;;;0.25;0.25;;;;;11.72;77.42;98415.81;5134941;27;8810;-58
2022/11/16 08:42:20;;;;;;;;;0.75;0.50;;;;;11.75;77.75;98411.97;5134794;27;8814;-58
2022/11/16 08:44:49;;;;;;;;;0.00;0.00;;;;;11.77;77.61;98421.47;5135599;27;8802;-57
2022/11/16 08:47:17;;;;;;;;;2.50;0.75;;;;;11.78;77.35;98430.28;5134559;27;8891;-58
2022/11/16 08:49:45;;;;;;;;;0.50;0.50;;;;;11.80;77.89;98431.81;5134539;27;8817;-58
2022/11/16 08:52:31;;;;;;;;;1.00;1.00;;;;;11.81;77.36;98441.47;5134867;27;8949;-58
2022/11/16 08:55:00;;;;;;;;;1.00;1.00;;;;;11.82;77.22;98444.97;5122068;27;8825;-57
2022/11/16 08:57:28;;;;;;;;;0.25;0.25;;;;;11.84;77.24;98438.44;5133967;27;8838;-57
2022/11/16 08:59:56;;;;;;;;;0.25;0.25;;;;;11.87;77.15;98435.47;5133126;27;8846;-58
2022/11/16 09:02:24;;;;;;;;;0.50;0.50;;;;;11.92;77.16;98445.63;5134240;27;8833;-58
2022/11/16 09:04:52;;;;;;;;;1.00;1.00;;;;;11.96;77.02;98445.13;5134482;27;8810;-57
2022/11/16 09:07:21;;;;;;;;;0.00;0.00;;;;;11.98;77.28;98444.97;5134291;27;8964;-58
2022/11/16 09:09:49;;;;;;;;;0.00;0.00;;;;;11.98;76.70;98441.31;5134892;27;8818;-58
2022/11/16 09:12:17;;;;;;;;;0.00;0.00;;;;;11.98;76.63;98447.63;5134436;27;8834;-56
2022/11/16 09:14:52;;;;;;;;;0.25;0.25;;;;;11.98;77.19;98456.47;5133610;27;8825;-58
2022/11/16 09:17:19;;;;;;;;;0.00;0.00;;;;;11.99;76.92;98456.31;5133505;27;8834;-58
2022/11/16 09:19:49;;;;;;;;;0.50;0.50;;;;;12.02;76.49;98463.97;5134569;27;8814;-58
2022/11/16 09:22:17;;;;;;;;;0.00;0.00;;;;;12.03;77.13;98454.13;5134375;27;8833;-57
2022/11/16 09:24:45;;;;;;;;;0.00;0.00;;;;;12.06;76.93;98464.47;5134676;27;8818;-58
2022/11/16 09:27:13;;;;;;;;;2.50;2.50;;;;;12.08;76.95;98468.63;5134933;27;8834;-58
2022/11/16 09:29:41;;;;;;;;;2.50;2.50;;;;;12.11;76.31;98473.66;5134381;27;8818;-58
2022/11/16 09:32:10;;;;;;;;;0.25;0.00;;;;;12.15;75.93;98464.28;5133834;27;8825;-58
2022/11/16 09:34:38;;;;;;;;;0.00;0.00;;;;;12.20;76.03;98466.47;5133812;27;8842;-57
2022/11/16 09:37:06;;;;;;;;;0.50;0.50;;;;;12.24;76.27;98465.94;5134208;27;8914;-57
2022/11/16 09:39:34;;;;;;;;;0.25;0.25;;;;;12.30;75.76;98462.59;5133617;27;8830;-58
2022/11/16 09:42:07;;;;;;;;;0.00;0.00;;;;;12.38;75.79;98473.28;5133264;27;8849;-58
2022/11/16 09:44:39;;;;;;;;;0.50;0.00;;;;;12.50;75.24;98469.25;5134338;27;8990;-58
2022/11/16 09:47:06;;;;;;;;;1.00;0.50;;;;;12.63;75.31;98469.56;5134351;27;8819;-58
2022/11/16 09:49:34;;;;;;;;;0.00;0.00;;;;;12.79;74.63;98477.53;5134145;27;8932;-58
2022/11/16 09:52:02;;;;;;;;;0.75;0.75;;;;;12.89;74.26;98479.97;5134093;27;8836;-58
2022/11/16 09:54:30;;;;;;;;;0.00;0.00;;;;;12.91;74.10;98478.00;5134620;27;9516;-56
2022/11/16 09:57:00;;;;;;;;;0.75;0.75;;;;;13.06;73.65;98478.97;5134769;27;8837;-58
2022/11/16 09:59:28;;;;;;;;;1.00;1.00;;;;;13.56;72.09;98468.66;5133869;27;8821;-58
2022/11/16 10:01:56;;;;;;;;;1.00;1.00;;;;;14.02;70.66;98475.69;5119543;27;8980;-58
2022/11/16 10:04:24;;;;;;;;;0.00;0.00;;;;;14.67;69.18;98474.13;5133588;27;8867;-58
2022/11/16 10:06:53;;;;;;;;;0.00;0.00;;;;;15.40;67.55;98472.28;5137714;27;8842;-58
2022/11/16 10:09:24;;;;;;;;;0.00;0.00;;;;;16.10;65.98;98470.53;5138397;27;8826;-58
2022/11/16 10:11:52;;;;;;;;;1.00;0.75;;;;;16.27;65.65;98476.25;5137831;27;8810;-57
2022/11/16 10:14:20;;;;;;;;;2.00;1.00;;;;;16.34;65.45;98479.84;5138171;27;8968;-57
2022/11/16 10:16:48;;;;;;;;;0.75;0.75;;;;;15.99;65.92;98469.19;5137889;27;8830;-56
2022/11/16 10:19:16;;;;;;;;;2.00;2.00;;;;;15.49;67.49;98479.19;5138588;27;8831;-58
2022/11/16 10:21:45;;;;;;;;;1.00;0.00;;;;;14.93;68.31;98483.38;5138092;27;8846;-57
2022/11/16 10:24:13;;;;;;;;;1.00;1.00;;;;;14.49;69.27;98482.50;5152696;27;8982;-58
2022/11/16 10:26:41;;;;;;;;;0.00;0.00;;;;;14.31;69.63;98482.00;5158705;27;8819;-58
2022/11/16 10:29:09;;;;;;;;;0.50;0.25;;;;;14.15;69.79;98489.31;5140469;27;8894;-57
2022/11/16 10:31:37;;;;;;;;;0.50;0.50;;;;;13.94;70.26;98481.09;5137553;27;8844;-58
2022/11/16 10:34:09;;;;;;;;;0.00;0.00;;;;;13.82;69.90;98485.22;5137264;27;8818;-56
2022/11/16 10:36:37;;;;;;;;;0.00;0.00;;;;;13.71;69.91;98482.94;5136996;27;8822;-56
2022/11/16 10:39:05;;;;;;;;;0.00;0.00;;;;;13.65;70.23;98476.47;5137065;27;8885;-58
2022/11/16 10:41:33;;;;;;;;;1.50;0.50;;;;;13.63;69.86;98472.31;5136818;27;8829;-58
2022/11/16 10:44:00;;;;;;;;;0.00;0.00;;;;;13.61;70.23;98467.16;5137145;27;8834;-58
2022/11/16 10:46:29;;;;;;;;;0.00;0.00;;;;;13.62;70.09;98465.28;5136806;27;8886;-58
2022/11/16 10:48:57;;;;;;;;;0.50;0.50;;;;;13.60;70.14;98464.63;5136615;27;8802;-58
2022/11/16 10:51:25;;;;;;;;;1.00;1.00;;;;;13.68;69.51;98451.22;5136914;27;9567;-58
2022/11/16 10:53:54;;;;;;;;;0.50;0.50;;;;;14.19;68.13;98451.31;5147406;27;8970;-57
2022/11/16 10:56:22;;;;;;;;;0.00;0.00;;;;;14.68;67.67;98441.78;5136084;27;8825;-59
2022/11/16 10:58:53;;;;;;;;;0.00;0.00;;;;;14.95;66.48;98438.44;5135566;27;8868;-58
2022/11/16 11:01:21;;;;;;;;;0.33;0.00;;;;;14.97;66.85;98424.84;5135348;27;8813;-58
2022/11/16 11:03:49;;;;;;;;;0.00;0.00;;;;;14.92;67.26;98432.63;5135550;27;8818;-59
2022/11/16 11:06:17;;;;;;;;;0.00;0.00;;;;;14.89;66.84;98427.63;5136085;27;8932;-58
2022/11/16 11:08:45;;;;;;;;;0.00;0.00;;;;;14.86;66.69;98433.38;5135253;27;8976;-58
2022/11/16 11:13:55;;;;;;;;;0.00;0.00;;;;;14.74;66.84;98424.13;5118049;27;8845;-58
2022/11/16 11:16:23;;;;;;;;;0.00;0.00;;;;;14.63;66.91;98421.94;5134620;27;8825;-58
2022/11/16 11:18:51;;;;;;;;;0.00;0.00;;;;;14.56;66.88;98421.00;5134899;27;8844;-58
2022/11/16 11:21:19;;;;;;;;;2.00;1.00;;;;;14.42;67.06;98428.00;5134378;27;8814;-57
2022/11/16 11:23:47;;;;;;;;;0.00;0.00;;;;;14.30;67.46;98415.25;5135273;27;8948;-58
2022/11/16 11:26:15;;;;;;;;;0.00;0.00;;;;;14.21;67.12;98422.50;5135278;27;8822;-58
2022/11/16 11:28:43;;;;;;;;;0.00;0.00;;;;;14.12;67.52;98420.88;5133972;27;8825;-58
2022/11/16 11:31:11;;;;;;;;;0.00;0.00;;;;;14.08;67.63;98416.09;5134649;27;8822;-58
2022/11/16 11:33:40;;;;;;;;;0.00;0.00;;;;;14.06;67.45;98415.44;5135239;27;8813;-57
2022/11/16 11:36:11;;;;;;;;;0.00;0.00;;;;;14.07;67.15;98417.94;5134576;27;8829;-58
2022/11/16 11:38:39;;;;;;;;;0.00;0.00;;;;;14.08;67.24;98418.75;5135617;27;8848;-58
2022/11/16 11:41:16;;;;;;;;;0.00;0.00;;;;;14.14;66.91;98421.56;5135750;27;8826;-59
2022/11/16 11:43:45;;;;;;;;;0.00;0.00;;;;;14.28;66.52;98403.88;5135904;27;8849;-58
2022/11/16 11:46:15;;;;;;;;;0.00;0.00;;;;;14.42;66.50;98403.06;5120072;27;8898;-59
2022/11/16 11:48:46;;;;;;;;;0.00;0.00;;;;;14.42;65.82;98400.41;5136675;27;8980;-58
2022/11/16 11:51:14;;;;;;;;;1.00;0.00;;;;;14.36;65.94;98401.13;5115411;28;8839;-59
2022/11/16 11:53:42;;;;;;;;;0.00;0.00;;;;;14.36;66.35;98395.75;5125114;27;8886;-58
2022/11/16 11:56:10;;;;;;;;;0.00;0.00;;;;;14.47;65.58;98401.50;5135453;27;8805;-58
2022/11/16 11:58:38;;;;;;;;;0.00;0.00;;;;;14.44;65.62;98390.31;5134807;27;8837;-58
2022/11/16 12:01:06;;;;;;;;;1.00;0.00;;;;;14.42;66.16;98392.34;5134053;27;8841;-58
2022/11/16 12:03:34;;;;;;;;;0.00;0.00;;;;;14.35;65.88;98392.25;5135129;27;8941;-59
2022/11/16 12:06:02;;;;;;;;;0.75;0.75;;;;;14.37;65.88;98395.59;5135123;27;8993;-58
2022/11/16 12:08:31;;;;;;;;;0.00;0.00;;;;;14.34;65.80;98390.59;5134089;27;8826;-59
2022/11/16 12:11:00;;;;;;;;;1.00;0.00;;;;;14.34;65.83;98390.59;5133665;27;8833;-58
2022/11/16 12:13:28;;;;;;;;;0.00;0.00;;;;;14.31;66.34;98390.97;5135104;27;8834;-58
2022/11/16 12:15:56;;;;;;;;;0.00;0.00;;;;;14.42;65.51;98385.13;5134527;27;8795;-58
2022/11/16 12:18:24;;;;;;;;;0.00;0.00;;;;;14.65;65.58;98387.75;5134589;27;8824;-58
2022/11/16 12:20:53;;;;;;;;;0.75;0.75;;;;;14.86;64.75;98385.94;5134250;27;8827;-59
2022/11/16 12:23:21;;;;;;;;;0.00;0.00;;;;;14.92;64.69;98389.72;5140799;27;9188;-59
2022/11/16 12:25:49;;;;;;;;;1.00;1.00;;;;;15.00;64.68;98392.31;5153821;27;8827;-58
2022/11/16 12:28:17;;;;;;;;;1.50;0.25;;;;;15.07;64.58;98391.38;5139998;27;8828;-58
2022/11/16 12:30:45;;;;;;;;;0.00;0.00;;;;;15.12;64.03;98385.44;5133005;27;8861;-58
2022/11/16 12:33:13;;;;;;;;;0.00;0.00;;;;;15.07;64.36;98383.34;5132970;27;8826;-57